Gilson, Illinois
Current Conditions -  °F | °C
As of 8:55 PM on Friday 19 Dec 2014 (Local Time) from KGBG Reporting Station
Overcast Overcast  
Wind Chill: 23°   Ceiling: 5500
Heat Index: 29°   Visibility: 10mi
Dew Point: 24°   Wind: 6mph
Humidity: 80%   Direction: 110°ESE
Pressure: 30.25"   Gusts: NA
Location:  40.86°N, 90.2°W
Report Text: KGBG 200255Z AUTO 11005KT 10SM OVC055 M01/M04 A3025 RMK AO2 T10151045
Loading
Personal Weather Stations






























Interactive Weather Map New forecast layout! Learn more

10-Day Weather Forecast

Advertisements
Track Severe Weather on mobile